createdAt,value
2022-12-31T00:00:03.529Z,88
2022-12-31T00:10:05.256Z,88
2022-12-31T00:20:06.934Z,88
2022-12-31T00:30:09.472Z,88
2022-12-31T00:40:11.635Z,88
2022-12-31T00:50:13.510Z,88
2022-12-31T01:00:15.370Z,89
2022-12-31T01:10:17.426Z,89
2022-12-31T01:30:21.577Z,89
2022-12-31T01:40:24.104Z,90
2022-12-31T01:50:25.836Z,90
2022-12-31T02:00:27.647Z,90
2022-12-31T02:10:30.250Z,90
2022-12-31T02:20:31.912Z,90
2022-12-31T02:30:33.720Z,90
2022-12-31T02:40:35.721Z,90
2022-12-31T02:50:37.666Z,89
2022-12-31T03:00:40.099Z,88
2022-12-31T03:10:42.655Z,87
2022-12-31T03:20:45.276Z,86
2022-12-31T03:30:47.075Z,84
2022-12-31T03:40:48.818Z,84
2022-12-31T03:50:51.237Z,85
2022-12-31T04:00:53.667Z,86
2022-12-31T04:10:55.310Z,86
2022-12-31T04:20:57.834Z,86
2022-12-31T04:30:59.863Z,87
2022-12-31T04:41:02.265Z,88
2022-12-31T04:51:03.949Z,88
2022-12-31T05:01:06.425Z,87
2022-12-31T05:11:08.565Z,86
2022-12-31T05:21:10.400Z,85
2022-12-31T05:31:12.259Z,83
2022-12-31T05:41:14.473Z,81
2022-12-31T05:51:16.683Z,80
2022-12-31T06:01:18.894Z,79
2022-12-31T06:11:20.716Z,78
2022-12-31T06:21:22.477Z,77
2022-12-31T06:31:24.935Z,77
2022-12-31T06:41:26.923Z,76
2022-12-31T06:51:28.528Z,75
2022-12-31T07:01:30.731Z,74
2022-12-31T07:11:32.914Z,74
2022-12-31T07:21:34.645Z,74
2022-12-31T07:31:37.326Z,74
2022-12-31T07:41:39.466Z,73
2022-12-31T08:31:50.063Z,72
2022-12-31T09:11:57.814Z,69
2022-12-31T09:21:59.983Z,69
2022-12-31T09:52:06.409Z,71
2022-12-31T10:22:13.457Z,72
2022-12-31T11:12:24.859Z,68
2022-12-31T11:32:29.047Z,68
2022-12-31T12:02:34.944Z,67
2022-12-31T12:32:41.864Z,68
2022-12-31T13:13:22.548Z,75
2022-12-31T13:22:53.233Z,75
2022-12-31T14:03:01.711Z,70
2022-12-31T14:53:12.104Z,68
2022-12-31T15:03:14.541Z,68
2022-12-31T15:13:16.788Z,68
2022-12-31T15:23:19.197Z,69
2022-12-31T15:33:21.667Z,70
2022-12-31T15:43:23.406Z,70
2022-12-31T15:53:25.985Z,71
2022-12-31T16:03:27.997Z,72
2022-12-31T16:13:29.569Z,72
2022-12-31T16:23:31.710Z,72
2022-12-31T16:33:34.328Z,70
2022-12-31T16:43:36.908Z,70
2022-12-31T16:53:39.489Z,69
2022-12-31T17:03:41.316Z,68
2022-12-31T17:13:43.630Z,67
2022-12-31T17:23:45.328Z,67
2022-12-31T17:33:47.721Z,66
2022-12-31T17:43:50.214Z,66
2022-12-31T17:53:52.679Z,65
2022-12-31T18:03:54.910Z,64
2022-12-31T18:13:56.856Z,63
2022-12-31T18:44:03.467Z,63
2022-12-31T18:54:05.486Z,62
2022-12-31T19:04:07.471Z,62
2022-12-31T19:14:16.458Z,62
2022-12-31T19:24:18.707Z,61
2022-12-31T19:34:20.951Z,60
2022-12-31T19:44:23.347Z,59
2022-12-31T19:54:25.975Z,59
2022-12-31T20:04:28.351Z,58
2022-12-31T20:14:30.364Z,58
2022-12-31T20:24:32.871Z,58
2022-12-31T20:34:34.953Z,57
2022-12-31T20:44:36.751Z,56
2022-12-31T20:54:38.779Z,55
2022-12-31T21:04:41.017Z,54
2022-12-31T21:14:44.930Z,53
2022-12-31T21:24:45.187Z,53
2022-12-31T21:35:00.369Z,53
2022-12-31T21:44:50.053Z,53
2022-12-31T21:54:52.186Z,53
2022-12-31T22:05:02.800Z,52
2022-12-31T22:15:15.375Z,52
2022-12-31T22:24:58.347Z,52
2022-12-31T22:35:00.706Z,51
2022-12-31T22:45:02.351Z,51
2022-12-31T22:55:04.065Z,50
2022-12-31T23:05:15.042Z,50
2022-12-31T23:15:08.821Z,50
2022-12-31T23:25:10.757Z,50
2022-12-31T23:35:12.650Z,50
2022-12-31T23:45:15.045Z,51
2022-12-31T23:55:16.760Z,50
